createdAt,value
2024-03-12T00:01:37.038Z,100615.50
2024-03-12T00:04:05.646Z,100620.06
2024-03-12T00:06:34.071Z,100624.38
2024-03-12T00:09:02.356Z,100620.88
2024-03-12T00:11:32.937Z,100621.97
2024-03-12T00:14:01.571Z,100628.97
2024-03-12T00:16:32.786Z,100620.34
2024-03-12T00:19:03.042Z,100621.19
2024-03-12T00:21:31.852Z,100629.25
2024-03-12T00:24:00.687Z,100624.97
2024-03-12T00:26:30.391Z,100623.06
2024-03-12T00:29:00.617Z,100622.25
2024-03-12T00:31:28.963Z,100619.84
2024-03-12T00:34:01.837Z,100622.25
2024-03-12T00:36:30.783Z,100619.84
2024-03-12T00:38:59.151Z,100625.25
2024-03-12T00:41:27.406Z,100622.56
2024-03-12T00:43:55.940Z,100627.94
2024-03-12T00:46:26.231Z,100632.53
2024-03-12T00:48:54.888Z,100620.16
2024-03-12T00:51:23.925Z,100628.25
2024-03-12T00:53:52.298Z,100620.16
2024-03-12T00:56:21.737Z,100613.97
2024-03-12T00:58:50.078Z,100618.53
2024-03-12T01:01:19.191Z,100623.94
2024-03-12T01:03:49.178Z,100619.66
2024-03-12T01:06:17.505Z,100614.25
2024-03-12T01:08:47.539Z,100614.25
2024-03-12T01:11:15.901Z,100623.44
2024-03-12T01:13:45.620Z,100623.44
2024-03-12T01:16:16.359Z,100617.25
2024-03-12T01:18:44.769Z,100619.16
2024-03-12T01:21:14.531Z,100621.03
2024-03-12T01:23:44.394Z,100620.25
2024-03-12T01:26:14.351Z,100619.16
2024-03-12T01:28:42.664Z,100616.75
2024-03-12T01:31:11.054Z,100609.00
2024-03-12T01:33:41.266Z,100615.94
2024-03-12T01:36:20.231Z,100617.84
2024-03-12T01:38:50.701Z,100617.03
2024-03-12T01:41:19.162Z,100624.84
2024-03-12T01:44:00.732Z,100615.94
2024-03-12T01:46:30.326Z,100617.03
2024-03-12T01:49:00.002Z,100616.22
2024-03-12T01:51:29.373Z,100614.34
2024-03-12T01:53:59.184Z,100609.53
2024-03-12T01:56:30.234Z,100627.00
2024-03-12T01:58:58.782Z,100620.03
2024-03-12T02:01:27.095Z,100608.44
2024-03-12T02:03:56.211Z,100606.56
2024-03-12T02:06:24.934Z,100609.25
2024-03-12T02:08:54.492Z,100611.94
2024-03-12T02:14:09.490Z,100621.91
2024-03-12T02:16:40.160Z,100623.03
2024-03-12T02:19:09.825Z,100623.03
2024-03-12T02:21:37.919Z,100621.41
2024-03-12T02:24:07.716Z,100635.97
2024-03-12T02:26:36.032Z,100633.28
2024-03-12T02:29:04.076Z,100629.50
2024-03-12T02:31:32.246Z,100630.56
2024-03-12T02:34:00.392Z,100637.88
2024-03-12T02:36:28.540Z,100637.06
2024-03-12T02:38:57.126Z,100631.69
2024-03-12T02:41:29.056Z,100653.25
2024-03-12T02:43:57.181Z,100647.06
2024-03-12T02:46:25.201Z,100655.94
2024-03-12T02:48:53.870Z,100657.84
2024-03-12T02:51:25.169Z,100653.25
2024-03-12T02:53:53.330Z,100655.94
2024-03-12T02:56:21.323Z,100654.34
2024-03-12T02:58:50.760Z,100659.72
2024-03-12T03:01:19.039Z,100660.84
2024-03-12T03:03:47.275Z,100662.72
2024-03-12T03:06:15.862Z,100660.84
2024-03-12T03:08:44.220Z,100663.53
2024-03-12T03:11:12.306Z,100671.63
2024-03-12T03:13:40.403Z,100656.53
2024-03-12T03:16:09.981Z,100653.53
2024-03-12T03:18:38.503Z,100667.31
2024-03-12T03:21:08.568Z,100659.50
2024-03-12T03:23:40.724Z,100667.59
2024-03-12T03:26:08.767Z,100659.50
2024-03-12T03:28:37.000Z,100663.28
2024-03-12T03:31:05.411Z,100667.59
2024-03-12T03:33:34.908Z,100658.72
2024-03-12T03:36:03.553Z,100665.97
2024-03-12T03:38:31.661Z,100662.50
2024-03-12T03:41:00.187Z,100661.69
2024-03-12T03:43:28.226Z,100670.09
2024-03-12T03:45:56.369Z,100665.47
2024-03-12T03:48:24.908Z,100675.19
2024-03-12T03:50:54.532Z,100666.28
2024-03-12T03:53:22.639Z,100671.66
2024-03-12T03:55:50.881Z,100668.47
2024-03-12T03:58:19.800Z,100668.47
2024-03-12T04:00:47.648Z,100673.84
2024-03-12T04:03:15.635Z,100673.06
2024-03-12T04:05:43.783Z,100672.25
2024-03-12T04:16:12.046Z,100684.91
2024-03-12T04:18:40.982Z,100679.81
2024-03-12T04:21:09.328Z,100687.13
2024-03-12T04:23:38.096Z,100690.59
2024-03-12T04:26:06.794Z,100691.72
2024-03-12T04:28:35.379Z,100694.41
2024-03-12T04:31:08.497Z,100695.50
2024-03-12T04:33:38.768Z,100692.00
2024-03-12T04:36:09.019Z,100692.78
2024-03-12T04:38:37.764Z,100695.50
2024-03-12T04:41:06.148Z,100692.00
2024-03-12T04:43:34.406Z,100694.69
2024-03-12T04:46:02.771Z,100705.47
2024-03-12T04:48:31.065Z,100703.06
2024-03-12T04:51:00.791Z,100708.16
2024-03-12T04:53:28.957Z,100708.47
2024-03-12T04:55:58.539Z,100719.22
2024-03-12T04:58:26.823Z,100718.41
2024-03-12T05:00:55.324Z,100718.13
2024-03-12T05:03:23.671Z,100719.22
2024-03-12T05:05:52.036Z,100715.72
2024-03-12T05:08:21.694Z,100723.00
2024-03-12T05:10:49.900Z,100714.13
2024-03-12T05:13:18.750Z,100725.72
2024-03-12T05:15:47.005Z,100725.72
2024-03-12T05:18:15.426Z,100719.53
2024-03-12T05:20:43.689Z,100724.09
2024-03-12T05:23:12.101Z,100727.06
2024-03-12T05:25:42.748Z,100728.97
2024-03-12T05:28:11.964Z,100743.25
2024-03-12T05:30:42.602Z,100737.13
2024-03-12T05:33:16.008Z,100743.31
2024-03-12T05:35:49.223Z,100755.91
2024-03-12T05:38:34.023Z,100760.50
2024-03-12T05:41:16.536Z,100764.78
2024-03-12T05:44:02.272Z,100761.59
2024-03-12T05:46:49.013Z,100767.78
2024-03-12T05:49:17.532Z,100766.69
2024-03-12T05:51:45.947Z,100780.16
2024-03-12T05:54:14.201Z,100778.53
2024-03-12T05:56:44.101Z,100779.66
2024-03-12T05:59:12.328Z,100785.84
2024-03-12T06:01:40.659Z,100783.13
2024-03-12T06:04:08.914Z,100781.56
2024-03-12T06:06:37.848Z,100783.13
2024-03-12T06:09:06.730Z,100786.13
2024-03-12T06:11:34.997Z,100788.81
2024-03-12T06:14:07.330Z,100794.19
2024-03-12T06:16:35.710Z,100796.91
2024-03-12T06:19:03.866Z,100801.50
2024-03-12T06:21:34.126Z,100801.50
2024-03-12T06:24:02.452Z,100801.00
2024-03-12T06:26:31.061Z,100813.06
2024-03-12T06:28:59.763Z,100811.47
2024-03-12T06:31:30.684Z,100808.78
2024-03-12T06:33:59.872Z,100819.56
2024-03-12T06:36:28.696Z,100813.34
2024-03-12T06:38:56.945Z,100816.03
2024-03-12T06:41:25.910Z,100821.44
2024-03-12T06:43:53.940Z,100822.25
2024-03-12T06:46:22.307Z,100822.25
2024-03-12T06:48:54.191Z,100831.13
2024-03-12T06:51:22.386Z,100833.03
2024-03-12T06:53:50.726Z,100834.91
2024-03-12T06:56:19.009Z,100830.34
2024-03-12T06:58:47.439Z,100832.22
2024-03-12T07:01:16.777Z,100832.22
2024-03-12T07:03:47.702Z,100822.25
2024-03-12T07:06:21.068Z,100828.44
2024-03-12T07:08:52.154Z,100830.34
2024-03-12T07:11:20.499Z,100825.75
2024-03-12T07:13:50.545Z,100830.34
2024-03-12T07:16:19.022Z,100838.41
2024-03-12T07:18:47.985Z,100833.81
2024-03-12T07:21:15.895Z,100837.31
2024-03-12T07:23:45.549Z,100833.03
2024-03-12T07:26:13.689Z,100829.22
2024-03-12T07:28:44.123Z,100829.50
2024-03-12T07:31:12.438Z,100834.63
2024-03-12T07:33:41.017Z,100825.75
2024-03-12T07:36:09.727Z,100827.63
2024-03-12T07:38:39.789Z,100833.81
2024-03-12T07:41:10.578Z,100831.91
2024-03-12T07:43:38.802Z,100841.63
2024-03-12T07:46:08.895Z,100840.00
2024-03-12T07:48:38.369Z,100842.41
2024-03-12T07:51:10.748Z,100842.69
2024-03-12T07:53:39.085Z,100847.00
2024-03-12T07:56:08.987Z,100843.53
2024-03-12T07:58:37.173Z,100848.09
2024-03-12T08:01:05.785Z,100852.41
2024-03-12T08:03:34.056Z,100855.88
2024-03-12T08:06:02.231Z,100850.78
2024-03-12T08:08:30.475Z,100844.31
2024-03-12T08:10:59.076Z,100851.59
2024-03-12T08:13:28.680Z,100851.28
2024-03-12T08:15:57.316Z,100857.78
2024-03-12T08:18:25.858Z,100848.59
2024-03-12T08:20:54.086Z,100855.59
2024-03-12T08:23:22.286Z,100849.41
2024-03-12T08:25:56.211Z,100854.81
2024-03-12T08:28:30.350Z,100851.28
2024-03-12T08:31:02.681Z,100851.59
2024-03-12T08:33:36.865Z,100847.81
2024-03-12T08:36:05.840Z,100859.09
2024-03-12T08:38:34.503Z,100859.38
2024-03-12T08:41:02.700Z,100856.38
2024-03-12T08:43:32.361Z,100862.06
2024-03-12T08:46:02.255Z,100855.31
2024-03-12T08:48:30.476Z,100859.91
2024-03-12T08:50:59.103Z,100861.78
2024-03-12T08:53:27.353Z,100861.78
2024-03-12T08:55:55.622Z,100864.19
2024-03-12T08:58:24.461Z,100856.09
2024-03-12T09:00:54.505Z,100861.00
2024-03-12T09:03:22.776Z,100850.72
2024-03-12T09:05:51.513Z,100853.41
2024-03-12T09:08:19.901Z,100854.25
2024-03-12T09:10:49.279Z,100859.63
2024-03-12T09:13:20.369Z,100861.50
2024-03-12T09:15:49.836Z,100863.13
2024-03-12T09:18:24.756Z,100870.13
2024-03-12T09:20:56.523Z,100863.91
2024-03-12T09:23:25.023Z,100865.53
2024-03-12T09:25:53.418Z,100866.31
2024-03-12T09:28:22.746Z,100865.53
2024-03-12T09:30:51.043Z,100863.63
2024-03-12T09:33:20.664Z,100870.63
2024-03-12T09:35:50.202Z,100863.63
2024-03-12T09:38:18.458Z,100867.94
2024-03-12T09:40:51.895Z,100870.63
2024-03-12T09:43:21.524Z,100873.31
2024-03-12T09:45:50.649Z,100869.56
2024-03-12T09:48:20.273Z,100871.13
2024-03-12T09:50:49.492Z,100873.03
2024-03-12T09:53:18.996Z,100873.03
2024-03-12T09:55:47.598Z,100873.03
2024-03-12T09:58:15.874Z,100868.44
2024-03-12T10:00:44.444Z,100869.25
2024-03-12T10:03:12.756Z,100874.34
2024-03-12T10:05:42.990Z,100868.16
2024-03-12T10:08:15.180Z,100873.25
2024-03-12T10:10:45.221Z,100873.25
2024-03-12T10:13:21.027Z,100872.47
2024-03-12T10:15:54.218Z,100874.06
2024-03-12T10:18:23.453Z,100870.56
2024-03-12T10:20:55.771Z,100873.75
2024-03-12T10:23:27.171Z,100862.47
2024-03-12T10:25:57.775Z,100868.66
2024-03-12T10:28:26.486Z,100870.00
2024-03-12T10:30:55.250Z,100878.88
2024-03-12T10:33:23.412Z,100872.69
2024-03-12T10:35:53.135Z,100879.69
2024-03-12T10:38:28.038Z,100873.19
2024-03-12T10:40:58.570Z,100869.72
2024-03-12T10:43:27.012Z,100882.09
2024-03-12T10:45:57.047Z,100872.13
2024-03-12T10:48:26.950Z,100872.13
2024-03-12T10:50:57.950Z,100868.34
2024-03-12T10:53:28.358Z,100872.91
2024-03-12T10:55:59.510Z,100861.84
2024-03-12T10:58:28.117Z,100864.53
2024-03-12T11:00:56.546Z,100868.06
2024-03-12T11:03:25.473Z,100865.38
2024-03-12T11:05:55.395Z,100871.56
2024-03-12T11:08:26.202Z,100865.03
2024-03-12T11:10:55.324Z,100866.66
2024-03-12T11:13:24.096Z,100866.66
2024-03-12T11:15:52.716Z,100855.88
2024-03-12T11:18:35.944Z,100863.97
2024-03-12T11:21:05.292Z,100859.38
2024-03-12T11:23:34.821Z,100865.59
2024-03-12T11:26:06.881Z,100857.50
2024-03-12T11:28:35.187Z,100868.78
2024-03-12T11:31:05.701Z,100861.50
2024-03-12T11:33:50.807Z,100866.09
2024-03-12T11:36:24.268Z,100860.69
2024-03-12T11:38:54.491Z,100845.97
2024-03-12T11:41:22.870Z,100867.72
2024-03-12T11:43:51.113Z,100851.25
2024-03-12T11:46:22.321Z,100849.63
2024-03-12T11:48:51.283Z,100856.34
2024-03-12T11:51:20.114Z,100857.16
2024-03-12T11:53:49.006Z,100849.34
2024-03-12T11:56:21.090Z,100856.06
2024-03-12T11:58:59.684Z,100844.47
2024-03-12T12:01:34.126Z,100843.66
2024-03-12T12:04:06.248Z,100849.84
2024-03-12T12:06:35.287Z,100846.06
2024-03-12T12:09:03.648Z,100853.06
2024-03-12T12:11:36.278Z,100851.19
2024-03-12T12:14:05.726Z,100848.47
2024-03-12T12:16:34.376Z,100849.28
2024-03-12T12:19:07.741Z,100854.66
2024-03-12T12:21:36.883Z,100851.19
2024-03-12T12:24:05.675Z,100858.16
2024-03-12T12:26:36.163Z,100835.06
2024-03-12T12:29:06.205Z,100849.78
2024-03-12T12:31:37.834Z,100848.69
2024-03-12T12:34:07.958Z,100850.59
2024-03-12T12:36:38.246Z,100842.53
2024-03-12T12:39:11.934Z,100855.72
2024-03-12T12:41:44.457Z,100853.81
2024-03-12T12:44:18.208Z,100844.94
2024-03-12T12:46:49.632Z,100853.00
2024-03-12T12:49:19.014Z,100847.34
2024-03-12T12:51:48.240Z,100844.63
2024-03-12T12:54:19.289Z,100850.81
2024-03-12T12:56:51.480Z,100845.44
2024-03-12T12:59:22.078Z,100852.44
2024-03-12T13:01:51.066Z,100850.53
2024-03-12T13:04:24.075Z,100852.44
2024-03-12T13:06:52.917Z,100850.53
2024-03-12T13:09:31.580Z,100849.13
2024-03-12T13:12:01.793Z,100848.34
2024-03-12T13:14:30.393Z,100842.94
2024-03-12T13:17:00.585Z,100846.75
2024-03-12T13:19:29.334Z,100855.34
2024-03-12T13:22:00.429Z,100852.66
2024-03-12T13:24:30.675Z,100852.66
2024-03-12T13:27:00.488Z,100851.56
2024-03-12T13:29:29.320Z,100846.16
2024-03-12T13:31:57.490Z,100858.56
2024-03-12T13:34:25.752Z,100852.09
2024-03-12T13:36:54.172Z,100856.66
2024-03-12T13:39:22.386Z,100852.88
2024-03-12T13:41:51.153Z,100844.78
2024-03-12T13:44:20.768Z,100847.47
2024-03-12T13:46:48.896Z,100851.78
2024-03-12T13:49:18.941Z,100852.88
2024-03-12T13:51:48.245Z,100853.66
2024-03-12T13:54:16.649Z,100853.38
2024-03-12T13:56:46.711Z,100853.38
2024-03-12T13:59:18.678Z,100856.06
2024-03-12T14:01:49.373Z,100856.63
2024-03-12T14:04:18.467Z,100855.00
2024-03-12T14:06:48.907Z,100855.78
2024-03-12T14:09:17.241Z,100854.72
2024-03-12T14:11:45.540Z,100858.19
2024-03-12T14:14:13.844Z,100858.19
2024-03-12T14:16:42.015Z,100860.09
2024-03-12T14:19:11.817Z,100854.41
2024-03-12T14:21:40.089Z,100860.91
2024-03-12T14:24:08.859Z,100858.69
2024-03-12T14:26:37.119Z,100859.53
2024-03-12T14:29:05.380Z,100857.91
2024-03-12T14:31:33.702Z,100859.53
2024-03-12T14:34:01.924Z,100862.22
2024-03-12T14:36:31.573Z,100863.00
2024-03-12T14:38:59.804Z,100866.50
2024-03-12T14:41:28.166Z,100866.50
2024-03-12T14:43:56.349Z,100860.03
2024-03-12T14:46:24.650Z,100856.53
2024-03-12T14:48:55.568Z,100871.59
2024-03-12T14:51:23.710Z,100867.03
2024-03-12T14:53:53.299Z,100871.31
2024-03-12T14:56:21.989Z,100862.50
2024-03-12T14:58:50.162Z,100872.44
2024-03-12T15:01:18.358Z,100868.91
2024-03-12T15:03:46.641Z,100876.72
2024-03-12T15:06:15.449Z,100880.22
2024-03-12T15:08:43.687Z,100881.31
2024-03-12T15:11:13.617Z,100886.41
2024-03-12T15:13:41.749Z,100878.31
2024-03-12T15:16:09.980Z,100881.81
2024-03-12T15:18:38.465Z,100884.50
2024-03-12T15:21:08.442Z,100880.22
2024-03-12T15:23:36.685Z,100889.91
2024-03-12T15:26:06.571Z,100889.91
2024-03-12T15:28:36.980Z,100886.13
2024-03-12T15:31:05.920Z,100892.31
2024-03-12T15:33:34.439Z,100895.00
2024-03-12T15:36:02.750Z,100897.72
2024-03-12T15:38:33.781Z,100896.91
2024-03-12T15:41:01.980Z,100899.31
2024-03-12T15:43:30.567Z,100902.81
2024-03-12T15:46:00.344Z,100908.22
2024-03-12T15:48:28.474Z,100902.81
2024-03-12T15:50:56.655Z,100894.72
2024-03-12T15:53:24.793Z,100903.63
2024-03-12T15:55:52.972Z,100901.75
2024-03-12T15:58:22.114Z,100912.53
2024-03-12T16:00:51.053Z,100908.75
2024-03-12T16:03:20.406Z,100910.63
2024-03-12T16:05:48.934Z,100910.63
2024-03-12T16:08:17.142Z,100914.94
2024-03-12T16:10:45.299Z,100916.53
2024-03-12T16:13:13.450Z,100918.44
2024-03-12T16:15:41.593Z,100924.63
2024-03-12T16:18:09.845Z,100917.41
2024-03-12T16:20:39.349Z,100928.41
2024-03-12T16:23:07.966Z,100926.50
2024-03-12T16:25:36.012Z,100922.22
2024-03-12T16:28:04.264Z,100928.13
2024-03-12T16:30:32.454Z,100926.22
2024-03-12T16:33:01.128Z,100929.72
2024-03-12T16:35:29.777Z,100931.63
2024-03-12T16:37:59.850Z,100929.72
2024-03-12T16:40:28.567Z,100932.41
2024-03-12T16:42:57.245Z,100950.22
2024-03-12T16:45:25.677Z,100945.63
2024-03-12T16:47:54.004Z,100952.91
2024-03-12T16:50:22.504Z,100954.53
2024-03-12T16:52:50.556Z,100950.22
2024-03-12T16:55:21.121Z,100951.84
2024-03-12T16:57:49.812Z,100958.03
2024-03-12T17:00:19.865Z,100958.03
2024-03-12T17:02:49.237Z,100965.81
2024-03-12T17:05:23.878Z,100965.31
2024-03-12T17:07:53.455Z,100972.31
2024-03-12T17:10:23.938Z,100969.59
2024-03-12T17:12:53.118Z,100975.00
2024-03-12T17:15:22.160Z,100972.31
2024-03-12T17:17:50.960Z,100974.72
2024-03-12T17:20:19.353Z,100973.13
2024-03-12T17:22:48.080Z,100980.09
2024-03-12T17:25:18.596Z,100982.00
2024-03-12T17:27:50.627Z,100983.63
2024-03-12T17:30:21.308Z,100989.03
2024-03-12T17:32:50.682Z,100987.41
2024-03-12T17:35:20.301Z,101003.03
2024-03-12T17:37:49.419Z,100996.81
2024-03-12T17:40:19.983Z,100995.22
2024-03-12T17:42:51.389Z,101006.78
2024-03-12T17:45:19.959Z,101004.09
2024-03-12T17:47:50.308Z,101008.41
2024-03-12T17:50:22.497Z,101005.72
2024-03-12T17:52:51.704Z,101008.41
2024-03-12T17:55:20.816Z,101005.72
2024-03-12T17:57:52.573Z,101010.03
2024-03-12T18:00:22.408Z,101010.03
2024-03-12T18:02:51.313Z,101015.44
2024-03-12T18:05:21.830Z,101009.00
2024-03-12T18:07:53.525Z,101022.41
2024-03-12T18:10:23.158Z,101015.44
2024-03-12T18:12:53.828Z,101026.72
2024-03-12T18:15:22.051Z,101025.91
2024-03-12T18:17:50.213Z,101034.00
2024-03-12T18:20:24.687Z,101038.59
2024-03-12T18:22:53.698Z,101034.81
2024-03-12T18:25:21.978Z,101036.69
2024-03-12T18:27:51.642Z,101038.31
2024-03-12T18:30:21.671Z,101039.09
2024-03-12T18:32:50.251Z,101044.50
2024-03-12T18:35:20.358Z,101044.50
2024-03-12T18:37:48.603Z,101051.81
2024-03-12T18:40:19.666Z,101052.59
2024-03-12T18:42:49.536Z,101058.00
2024-03-12T18:45:20.607Z,101039.09
2024-03-12T18:47:51.634Z,101052.59
2024-03-12T18:50:22.061Z,101059.59
2024-03-12T18:52:50.798Z,101059.59
2024-03-12T18:55:20.172Z,101063.94
2024-03-12T18:57:49.320Z,101059.59
2024-03-12T19:00:20.933Z,101066.63
2024-03-12T19:02:53.024Z,101066.63
2024-03-12T19:05:25.482Z,101068.22
2024-03-12T19:07:56.536Z,101054.91
2024-03-12T19:10:30.800Z,101078.22
2024-03-12T19:13:00.470Z,101075.50
2024-03-12T19:15:37.180Z,101080.91
2024-03-12T19:18:13.768Z,101085.22
2024-03-12T19:20:42.837Z,101084.41
2024-03-12T19:23:11.150Z,101087.91
2024-03-12T19:25:39.289Z,101086.03
2024-03-12T19:28:09.131Z,101083.31
2024-03-12T19:30:37.809Z,101089.50
2024-03-12T19:33:09.850Z,101083.94
2024-03-12T19:35:40.203Z,101086.81
2024-03-12T19:38:09.129Z,101091.41
2024-03-12T19:40:37.190Z,101087.63
2024-03-12T19:43:05.907Z,101093.03
2024-03-12T19:45:35.131Z,101092.22
2024-03-12T19:48:03.674Z,101094.91
2024-03-12T19:50:33.899Z,101098.44
2024-03-12T19:53:04.159Z,101099.22
2024-03-12T19:55:32.369Z,101098.94
2024-03-12T19:58:02.023Z,101099.22
2024-03-12T20:00:32.381Z,101095.72
2024-03-12T20:03:03.585Z,101105.41
2024-03-12T20:05:33.697Z,101101.91
2024-03-12T20:08:03.317Z,101101.69
2024-03-12T20:10:31.566Z,101108.13
2024-03-12T20:13:00.068Z,101107.03
2024-03-12T20:15:31.636Z,101104.91
2024-03-12T20:18:00.701Z,101114.06
2024-03-12T20:20:29.476Z,101111.34
2024-03-12T20:22:59.954Z,101110.53
2024-03-12T20:25:28.286Z,101114.84
2024-03-12T20:27:57.028Z,101111.34
2024-03-12T20:30:28.347Z,101114.84
2024-03-12T20:33:00.150Z,101104.41
2024-03-12T20:35:31.540Z,101120.25
2024-03-12T20:38:01.217Z,101121.03
2024-03-12T20:40:29.556Z,101126.44
2024-03-12T20:43:00.635Z,101124.53
2024-03-12T20:45:30.245Z,101118.63
2024-03-12T20:47:59.449Z,101124.53
2024-03-12T20:50:27.820Z,101125.34
2024-03-12T20:52:56.441Z,101130.75
2024-03-12T20:55:26.131Z,101126.94
2024-03-12T20:57:54.373Z,101123.44
2024-03-12T21:00:29.644Z,101121.53
2024-03-12T21:02:57.931Z,101124.25
2024-03-12T21:05:28.323Z,101133.16
2024-03-12T21:07:56.468Z,101125.06
2024-03-12T21:10:26.020Z,101124.25
2024-03-12T21:12:54.605Z,101125.88
2024-03-12T21:15:23.655Z,101120.75
2024-03-12T21:17:52.132Z,101127.78
2024-03-12T21:20:23.382Z,101129.34
2024-03-12T21:22:52.995Z,101131.25
2024-03-12T21:25:21.500Z,101132.06
2024-03-12T21:27:51.225Z,101130.19
2024-03-12T21:30:22.984Z,101130.19
2024-03-12T21:32:52.067Z,101126.66
2024-03-12T21:35:20.624Z,101126.66
2024-03-12T21:37:48.785Z,101129.06
2024-03-12T21:40:17.550Z,101132.06
2024-03-12T21:42:45.913Z,101130.19
2024-03-12T21:45:19.288Z,101139.88
2024-03-12T21:47:48.995Z,101129.91
2024-03-12T21:50:17.904Z,101131.78
2024-03-12T21:52:47.157Z,101127.47
2024-03-12T21:55:15.896Z,101134.47
2024-03-12T21:57:45.004Z,101143.38
2024-03-12T22:00:21.126Z,101139.88
2024-03-12T22:02:50.211Z,101144.47
2024-03-12T22:05:21.290Z,101142.56
2024-03-12T22:07:51.316Z,101144.19
2024-03-12T22:10:19.779Z,101147.69
2024-03-12T22:12:48.156Z,101144.19
2024-03-12T22:15:17.769Z,101146.88
2024-03-12T22:17:46.924Z,101146.88
2024-03-12T22:20:20.018Z,101141.47
2024-03-12T22:22:48.880Z,101150.38
2024-03-12T22:25:17.844Z,101152.28
2024-03-12T22:27:47.211Z,101149.59
2024-03-12T22:30:17.783Z,101156.06
2024-03-12T22:32:48.558Z,101153.91
2024-03-12T22:35:17.036Z,101156.59
2024-03-12T22:37:48.914Z,101159.28
2024-03-12T22:40:18.355Z,101156.59
2024-03-12T22:42:46.702Z,101155.50
2024-03-12T22:45:16.375Z,101159.28
2024-03-12T22:47:44.954Z,101153.06
2024-03-12T22:50:15.775Z,101154.69
2024-03-12T22:52:48.153Z,101155.78
2024-03-12T22:55:17.252Z,101158.47
2024-03-12T22:57:45.632Z,101160.09
2024-03-12T23:00:31.757Z,101160.09
2024-03-12T23:03:01.616Z,101160.09
2024-03-12T23:05:35.004Z,101167.09
2024-03-12T23:08:06.605Z,101160.09
2024-03-12T23:10:36.855Z,101159.28
2024-03-12T23:13:05.823Z,101156.59
2024-03-12T23:15:36.557Z,101155.50
2024-03-12T23:18:05.640Z,101158.19
2024-03-12T23:20:35.659Z,101157.41
2024-03-12T23:23:03.923Z,101158.19
2024-03-12T23:25:32.123Z,101157.41
2024-03-12T23:28:00.879Z,101156.31
2024-03-12T23:30:28.949Z,101159.28
2024-03-12T23:32:59.330Z,101160.88
2024-03-12T23:35:28.441Z,101156.59
2024-03-12T23:37:59.407Z,101160.09
2024-03-12T23:40:29.290Z,101155.50
2024-03-12T23:42:57.631Z,101160.88
2024-03-12T23:45:27.712Z,101152.06
2024-03-12T23:47:56.037Z,101166.28
2024-03-12T23:50:25.144Z,101162.50
2024-03-12T23:52:53.284Z,101165.22
2024-03-12T23:55:23.035Z,101173.31
2024-03-12T23:57:54.621Z,101167.09
